sensor_id;sensor_type;location;lat;lon;timestamp;temperature;humidity
67364;HTU21D;54250;45.572;38.086;2023-02-13T00:00:58;-2.37;83.04
67364;HTU21D;54250;45.572;38.086;2023-02-13T00:03:24;-2.41;83.21
67364;HTU21D;54250;45.572;38.086;2023-02-13T00:05:50;-2.39;83.20
67364;HTU21D;54250;45.572;38.086;2023-02-13T00:08:17;-2.41;83.19
67364;HTU21D;54250;45.572;38.086;2023-02-13T00:10:42;-2.41;83.15
67364;HTU21D;54250;45.572;38.086;2023-02-13T00:13:08;-2.46;83.26
67364;HTU21D;54250;45.572;38.086;2023-02-13T00:15:34;-2.53;83.34
67364;HTU21D;54250;45.572;38.086;2023-02-13T00:18:01;-2.66;83.55
67364;HTU21D;54250;45.572;38.086;2023-02-13T00:20:27;-2.74;83.73
67364;HTU21D;54250;45.572;38.086;2023-02-13T00:22:53;-2.80;83.74
67364;HTU21D;54250;45.572;38.086;2023-02-13T00:25:19;-2.82;83.76
67364;HTU21D;54250;45.572;38.086;2023-02-13T00:27:45;-2.79;83.66
67364;HTU21D;54250;45.572;38.086;2023-02-13T00:30:12;-2.76;83.56
67364;HTU21D;54250;45.572;38.086;2023-02-13T00:32:38;-2.73;83.46
67364;HTU21D;54250;45.572;38.086;2023-02-13T00:35:04;-2.66;83.32
67364;HTU21D;54250;45.572;38.086;2023-02-13T00:37:30;-2.60;83.11
67364;HTU21D;54250;45.572;38.086;2023-02-13T00:39:57;-2.59;83.00
67364;HTU21D;54250;45.572;38.086;2023-02-13T00:42:23;-2.58;83.04
67364;HTU21D;54250;45.572;38.086;2023-02-13T00:44:52;-2.59;83.05
67364;HTU21D;54250;45.572;38.086;2023-02-13T00:47:18;-2.61;83.11
67364;HTU21D;54250;45.572;38.086;2023-02-13T00:49:45;-2.64;83.25
67364;HTU21D;54250;45.572;38.086;2023-02-13T00:52:11;-2.64;83.23
67364;HTU21D;54250;45.572;38.086;2023-02-13T00:54:37;-2.66;83.35
67364;HTU21D;54250;45.572;38.086;2023-02-13T00:57:05;-2.66;83.32
67364;HTU21D;54250;45.572;38.086;2023-02-13T00:59:31;-2.63;83.29
67364;HTU21D;54250;45.572;38.086;2023-02-13T01:01:59;-2.56;83.21
67364;HTU21D;54250;45.572;38.086;2023-02-13T01:04:25;-2.45;83.01
67364;HTU21D;54250;45.572;38.086;2023-02-13T01:06:51;-2.38;82.81
67364;HTU21D;54250;45.572;38.086;2023-02-13T01:09:17;-2.33;82.71
67364;HTU21D;54250;45.572;38.086;2023-02-13T01:11:43;-2.37;82.73
67364;HTU21D;54250;45.572;38.086;2023-02-13T01:14:09;-2.46;82.88
67364;HTU21D;54250;45.572;38.086;2023-02-13T01:16:35;-2.58;83.15
67364;HTU21D;54250;45.572;38.086;2023-02-13T01:19:01;-2.69;83.42
67364;HTU21D;54250;45.572;38.086;2023-02-13T01:21:30;-2.79;83.73
67364;HTU21D;54250;45.572;38.086;2023-02-13T01:23:56;-2.83;83.86
67364;HTU21D;54250;45.572;38.086;2023-02-13T01:26:23;-2.80;83.78
67364;HTU21D;54250;45.572;38.086;2023-02-13T01:28:53;-2.71;83.55
67364;HTU21D;54250;45.572;38.086;2023-02-13T01:31:20;-2.63;83.35
67364;HTU21D;54250;45.572;38.086;2023-02-13T01:33:49;-2.53;83.13
67364;HTU21D;54250;45.572;38.086;2023-02-13T01:36:15;-2.45;82.98
67364;HTU21D;54250;45.572;38.086;2023-02-13T01:38:41;-2.37;82.89
67364;HTU21D;54250;45.572;38.086;2023-02-13T01:41:08;-2.28;82.72
67364;HTU21D;54250;45.572;38.086;2023-02-13T01:44:01;-2.21;82.49
67364;HTU21D;54250;45.572;38.086;2023-02-13T01:46:39;-2.13;82.49
67364;HTU21D;54250;45.572;38.086;2023-02-13T01:49:22;-2.08;82.48
67364;HTU21D;54250;45.572;38.086;2023-02-13T01:51:52;-2.01;82.70
67364;HTU21D;54250;45.572;38.086;2023-02-13T01:54:24;-1.90;82.56
67364;HTU21D;54250;45.572;38.086;2023-02-13T01:57:03;-1.83;82.52
67364;HTU21D;54250;45.572;38.086;2023-02-13T01:59:39;-1.75;82.39
67364;HTU21D;54250;45.572;38.086;2023-02-13T02:02:07;-1.69;82.41
67364;HTU21D;54250;45.572;38.086;2023-02-13T02:04:35;-1.63;82.42
67364;HTU21D;54250;45.572;38.086;2023-02-13T02:07:12;-1.61;82.42
67364;HTU21D;54250;45.572;38.086;2023-02-13T02:09:42;-1.60;82.52
67364;HTU21D;54250;45.572;38.086;2023-02-13T02:12:23;-1.61;82.60
67364;HTU21D;54250;45.572;38.086;2023-02-13T02:14:52;-1.58;82.64
67364;HTU21D;54250;45.572;38.086;2023-02-13T02:17:24;-1.56;82.58
67364;HTU21D;54250;45.572;38.086;2023-02-13T02:36:56;-2.28;83.46
67364;HTU21D;54250;45.572;38.086;2023-02-13T02:39:43;-2.46;83.87
67364;HTU21D;54250;45.572;38.086;2023-02-13T02:42:27;-2.67;84.02
67364;HTU21D;54250;45.572;38.086;2023-02-13T02:45:10;-2.90;84.27
67364;HTU21D;54250;45.572;38.086;2023-02-13T02:47:43;-3.10;84.60
67364;HTU21D;54250;45.572;38.086;2023-02-13T02:50:33;-3.31;84.78
67364;HTU21D;54250;45.572;38.086;2023-02-13T02:53:25;-3.46;84.52
67364;HTU21D;54250;45.572;38.086;2023-02-13T03:01:28;-3.56;84.29
67364;HTU21D;54250;45.572;38.086;2023-02-13T03:04:35;-3.64;84.05
67364;HTU21D;54250;45.572;38.086;2023-02-13T03:07:20;-3.74;84.19
67364;HTU21D;54250;45.572;38.086;2023-02-13T03:09:50;-3.79;84.16
67364;HTU21D;54250;45.572;38.086;2023-02-13T03:12:45;-3.91;84.13
67364;HTU21D;54250;45.572;38.086;2023-02-13T03:15:32;-4.02;84.31
67364;HTU21D;54250;45.572;38.086;2023-02-13T03:17:59;-4.09;84.37
67364;HTU21D;54250;45.572;38.086;2023-02-13T03:20:55;-4.10;84.23
67364;HTU21D;54250;45.572;38.086;2023-02-13T03:24:03;-4.10;84.02
67364;HTU21D;54250;45.572;38.086;2023-02-13T03:26:36;-4.07;84.00
67364;HTU21D;54250;45.572;38.086;2023-02-13T03:35:21;-3.98;83.59
67364;HTU21D;54250;45.572;38.086;2023-02-13T03:38:54;-3.93;83.34
67364;HTU21D;54250;45.572;38.086;2023-02-13T03:41:25;-3.79;83.26
67364;HTU21D;54250;45.572;38.086;2023-02-13T03:44:13;-3.67;83.00
67364;HTU21D;54250;45.572;38.086;2023-02-13T03:46:47;-3.61;82.90
67364;HTU21D;54250;45.572;38.086;2023-02-13T03:49:23;-3.49;82.85
67364;HTU21D;54250;45.572;38.086;2023-02-13T03:52:15;-3.32;82.63
67364;HTU21D;54250;45.572;38.086;2023-02-13T03:55:15;-3.17;82.28
67364;HTU21D;54250;45.572;38.086;2023-02-13T03:58:13;-3.05;82.14
67364;HTU21D;54250;45.572;38.086;2023-02-13T04:01:01;-3.08;82.27
67364;HTU21D;54250;45.572;38.086;2023-02-13T04:03:51;-3.17;82.47
67364;HTU21D;54250;45.572;38.086;2023-02-13T04:06:30;-3.26;82.94
67364;HTU21D;54250;45.572;38.086;2023-02-13T04:08:56;-3.32;83.20
67364;HTU21D;54250;45.572;38.086;2023-02-13T04:17:05;-3.30;83.21
67364;HTU21D;54250;45.572;38.086;2023-02-13T04:19:33;-3.20;83.13
67364;HTU21D;54250;45.572;38.086;2023-02-13T04:22:00;-3.09;82.94
67364;HTU21D;54250;45.572;38.086;2023-02-13T04:24:27;-3.00;82.80
67364;HTU21D;54250;45.572;38.086;2023-02-13T04:26:54;-2.88;82.68
67364;HTU21D;54250;45.572;38.086;2023-02-13T04:29:22;-2.78;82.56
67364;HTU21D;54250;45.572;38.086;2023-02-13T04:31:49;-2.66;82.46
67364;HTU21D;54250;45.572;38.086;2023-02-13T04:34:15;-2.57;82.27
67364;HTU21D;54250;45.572;38.086;2023-02-13T04:36:41;-2.50;82.18
67364;HTU21D;54250;45.572;38.086;2023-02-13T04:39:07;-2.53;82.15
67364;HTU21D;54250;45.572;38.086;2023-02-13T04:41:34;-2.66;82.49
67364;HTU21D;54250;45.572;38.086;2023-02-13T04:44:00;-2.74;82.84
67364;HTU21D;54250;45.572;38.086;2023-02-13T04:46:26;-2.69;82.91
67364;HTU21D;54250;45.572;38.086;2023-02-13T04:48:52;-2.57;82.70
67364;HTU21D;54250;45.572;38.086;2023-02-13T04:51:18;-2.42;82.46
67364;HTU21D;54250;45.572;38.086;2023-02-13T04:53:43;-2.19;82.22
67364;HTU21D;54250;45.572;38.086;2023-02-13T04:56:09;-1.86;81.84
67364;HTU21D;54250;45.572;38.086;2023-02-13T04:58:35;-1.54;81.30
67364;HTU21D;54250;45.572;38.086;2023-02-13T05:01:02;-1.38;80.87
67364;HTU21D;54250;45.572;38.086;2023-02-13T05:03:28;-1.18;81.14
67364;HTU21D;54250;45.572;38.086;2023-02-13T05:05:54;-0.24;80.04
67364;HTU21D;54250;45.572;38.086;2023-02-13T05:08:21;0.83;77.54
67364;HTU21D;54250;45.572;38.086;2023-02-13T05:10:47;1.66;76.18
67364;HTU21D;54250;45.572;38.086;2023-02-13T05:13:13;2.47;75.07
67364;HTU21D;54250;45.572;38.086;2023-02-13T05:15:41;2.78;74.58
67364;HTU21D;54250;45.572;38.086;2023-02-13T05:18:07;2.82;75.09
67364;HTU21D;54250;45.572;38.086;2023-02-13T05:20:32;2.80;76.04
67364;HTU21D;54250;45.572;38.086;2023-02-13T05:22:58;3.00;76.24
67364;HTU21D;54250;45.572;38.086;2023-02-13T05:25:43;3.18;75.74
67364;HTU21D;54250;45.572;38.086;2023-02-13T05:28:09;2.70;76.61
67364;HTU21D;54250;45.572;38.086;2023-02-13T05:30:54;2.82;78.75
67364;HTU21D;54250;45.572;38.086;2023-02-13T05:33:20;4.72;74.73
67364;HTU21D;54250;45.572;38.086;2023-02-13T05:35:46;6.39;71.06
67364;HTU21D;54250;45.572;38.086;2023-02-13T05:38:12;7.72;68.39
67364;HTU21D;54250;45.572;38.086;2023-02-13T05:40:38;8.81;66.91
67364;HTU21D;54250;45.572;38.086;2023-02-13T05:43:04;9.75;65.54
67364;HTU21D;54250;45.572;38.086;2023-02-13T05:45:30;10.56;64.58
67364;HTU21D;54250;45.572;38.086;2023-02-13T05:47:56;11.26;63.81
67364;HTU21D;54250;45.572;38.086;2023-02-13T05:50:22;11.89;62.98
67364;HTU21D;54250;45.572;38.086;2023-02-13T05:52:48;12.43;62.13
67364;HTU21D;54250;45.572;38.086;2023-02-13T05:55:14;12.86;61.81
67364;HTU21D;54250;45.572;38.086;2023-02-13T05:57:40;13.19;60.99
67364;HTU21D;54250;45.572;38.086;2023-02-13T06:00:06;13.54;60.19
67364;HTU21D;54250;45.572;38.086;2023-02-13T06:02:32;14.08;59.12
67364;HTU21D;54250;45.572;38.086;2023-02-13T06:04:58;14.56;57.96
67364;HTU21D;54250;45.572;38.086;2023-02-13T06:07:24;14.83;57.07
67364;HTU21D;54250;45.572;38.086;2023-02-13T06:09:50;15.33;56.19
67364;HTU21D;54250;45.572;38.086;2023-02-13T06:12:16;15.77;55.71
67364;HTU21D;54250;45.572;38.086;2023-02-13T06:14:42;16.13;54.84
67364;HTU21D;54250;45.572;38.086;2023-02-13T06:17:08;15.52;56.21
67364;HTU21D;54250;45.572;38.086;2023-02-13T06:19:34;15.76;55.47
67364;HTU21D;54250;45.572;38.086;2023-02-13T06:22:00;15.73;55.16
67364;HTU21D;54250;45.572;38.086;2023-02-13T06:24:26;15.88;54.48
67364;HTU21D;54250;45.572;38.086;2023-02-13T06:26:52;16.41;53.55
67364;HTU21D;54250;45.572;38.086;2023-02-13T06:29:18;16.84;52.20
67364;HTU21D;54250;45.572;38.086;2023-02-13T06:31:44;16.93;51.72
67364;HTU21D;54250;45.572;38.086;2023-02-13T06:34:10;16.94;51.79
67364;HTU21D;54250;45.572;38.086;2023-02-13T06:36:36;16.73;51.19
67364;HTU21D;54250;45.572;38.086;2023-02-13T06:39:03;16.89;50.43
67364;HTU21D;54250;45.572;38.086;2023-02-13T06:41:29;17.19;49.50
67364;HTU21D;54250;45.572;38.086;2023-02-13T06:43:55;17.50;48.92
67364;HTU21D;54250;45.572;38.086;2023-02-13T06:46:21;17.79;48.47
67364;HTU21D;54250;45.572;38.086;2023-02-13T06:48:47;18.09;47.41
67364;HTU21D;54250;45.572;38.086;2023-02-13T06:51:13;16.14;49.20
67364;HTU21D;54250;45.572;38.086;2023-02-13T06:53:39;15.61;51.30
67364;HTU21D;54250;45.572;38.086;2023-02-13T06:56:05;16.31;48.96
67364;HTU21D;54250;45.572;38.086;2023-02-13T06:58:31;17.03;47.79
67364;HTU21D;54250;45.572;38.086;2023-02-13T07:00:58;17.65;46.70
67364;HTU21D;54250;45.572;38.086;2023-02-13T07:03:25;18.20;45.76
67364;HTU21D;54250;45.572;38.086;2023-02-13T07:05:51;18.40;45.12
67364;HTU21D;54250;45.572;38.086;2023-02-13T07:08:17;18.37;45.26
67364;HTU21D;54250;45.572;38.086;2023-02-13T07:10:43;18.37;45.14
67364;HTU21D;54250;45.572;38.086;2023-02-13T07:13:09;18.63;44.54
67364;HTU21D;54250;45.572;38.086;2023-02-13T07:15:36;18.68;43.99
67364;HTU21D;54250;45.572;38.086;2023-02-13T07:18:03;17.76;45.07
67364;HTU21D;54250;45.572;38.086;2023-02-13T07:20:30;18.05;45.35
67364;HTU21D;54250;45.572;38.086;2023-02-13T07:23:00;18.62;43.77
67364;HTU21D;54250;45.572;38.086;2023-02-13T07:25:27;18.62;43.68
67364;HTU21D;54250;45.572;38.086;2023-02-13T07:27:53;18.94;42.90
67364;HTU21D;54250;45.572;38.086;2023-02-13T07:30:20;19.29;41.62
67364;HTU21D;54250;45.572;38.086;2023-02-13T07:32:46;18.18;42.77
67364;HTU21D;54250;45.572;38.086;2023-02-13T07:35:12;16.91;44.80
67364;HTU21D;54250;45.572;38.086;2023-02-13T07:37:38;17.23;44.67
67364;HTU21D;54250;45.572;38.086;2023-02-13T07:40:05;17.74;43.74
67364;HTU21D;54250;45.572;38.086;2023-02-13T07:42:32;18.30;42.42
67364;HTU21D;54250;45.572;38.086;2023-02-13T07:44:59;18.51;42.61
67364;HTU21D;54250;45.572;38.086;2023-02-13T07:47:26;18.28;42.23
67364;HTU21D;54250;45.572;38.086;2023-02-13T07:49:52;18.15;42.45
67364;HTU21D;54250;45.572;38.086;2023-02-13T07:52:19;18.57;41.71
67364;HTU21D;54250;45.572;38.086;2023-02-13T07:54:45;18.83;41.32
67364;HTU21D;54250;45.572;38.086;2023-02-13T07:57:15;18.37;41.65
67364;HTU21D;54250;45.572;38.086;2023-02-13T07:59:41;18.43;41.06
67364;HTU21D;54250;45.572;38.086;2023-02-13T08:02:11;18.65;41.06
67364;HTU21D;54250;45.572;38.086;2023-02-13T08:04:39;18.64;41.29
67364;HTU21D;54250;45.572;38.086;2023-02-13T08:07:05;18.32;40.96
67364;HTU21D;54250;45.572;38.086;2023-02-13T08:09:31;17.60;41.77
67364;HTU21D;54250;45.572;38.086;2023-02-13T08:12:16;16.10;43.88
67364;HTU21D;54250;45.572;38.086;2023-02-13T08:14:42;16.59;43.16
67364;HTU21D;54250;45.572;38.086;2023-02-13T08:17:08;17.09;42.07
67364;HTU21D;54250;45.572;38.086;2023-02-13T08:19:34;17.32;41.24
67364;HTU21D;54250;45.572;38.086;2023-02-13T08:22:00;16.73;42.38
67364;HTU21D;54250;45.572;38.086;2023-02-13T08:24:26;17.59;41.35
67364;HTU21D;54250;45.572;38.086;2023-02-13T08:26:54;18.35;40.73
67364;HTU21D;54250;45.572;38.086;2023-02-13T08:29:20;18.69;40.17
67364;HTU21D;54250;45.572;38.086;2023-02-13T08:31:46;17.59;40.15
67364;HTU21D;54250;45.572;38.086;2023-02-13T08:34:12;16.28;42.30
67364;HTU21D;54250;45.572;38.086;2023-02-13T08:36:38;16.59;42.67
67364;HTU21D;54250;45.572;38.086;2023-02-13T08:39:04;17.43;41.34
67364;HTU21D;54250;45.572;38.086;2023-02-13T08:41:30;17.44;41.35
67364;HTU21D;54250;45.572;38.086;2023-02-13T08:43:56;16.15;42.65
67364;HTU21D;54250;45.572;38.086;2023-02-13T08:46:22;14.97;44.07
67364;HTU21D;54250;45.572;38.086;2023-02-13T08:48:48;14.40;43.64
67364;HTU21D;54250;45.572;38.086;2023-02-13T08:51:14;12.93;45.77
67364;HTU21D;54250;45.572;38.086;2023-02-13T08:53:41;12.91;46.70
67364;HTU21D;54250;45.572;38.086;2023-02-13T08:56:07;14.08;44.93
67364;HTU21D;54250;45.572;38.086;2023-02-13T08:58:34;13.78;44.22
67364;HTU21D;54250;45.572;38.086;2023-02-13T09:01:03;13.39;45.00
67364;HTU21D;54250;45.572;38.086;2023-02-13T09:03:29;14.01;44.62
67364;HTU21D;54250;45.572;38.086;2023-02-13T09:05:58;14.58;43.54
67364;HTU21D;54250;45.572;38.086;2023-02-13T09:08:25;14.97;42.74
67364;HTU21D;54250;45.572;38.086;2023-02-13T09:11:00;15.16;42.90
67364;HTU21D;54250;45.572;38.086;2023-02-13T09:13:30;15.34;42.42
67364;HTU21D;54250;45.572;38.086;2023-02-13T09:16:00;15.32;42.46
67364;HTU21D;54250;45.572;38.086;2023-02-13T09:18:27;14.88;42.77
67364;HTU21D;54250;45.572;38.086;2023-02-13T09:21:01;13.70;44.09
67364;HTU21D;54250;45.572;38.086;2023-02-13T09:23:32;13.20;45.38
67364;HTU21D;54250;45.572;38.086;2023-02-13T09:26:04;13.61;44.84
67364;HTU21D;54250;45.572;38.086;2023-02-13T09:28:31;14.24;43.93
67364;HTU21D;54250;45.572;38.086;2023-02-13T09:30:58;13.06;44.00
67364;HTU21D;54250;45.572;38.086;2023-02-13T09:33:24;12.74;46.08
67364;HTU21D;54250;45.572;38.086;2023-02-13T09:35:51;13.35;45.21
67364;HTU21D;54250;45.572;38.086;2023-02-13T09:38:17;13.98;44.46
67364;HTU21D;54250;45.572;38.086;2023-02-13T09:40:53;14.56;44.00
67364;HTU21D;54250;45.572;38.086;2023-02-13T09:43:30;14.29;43.87
67364;HTU21D;54250;45.572;38.086;2023-02-13T09:46:06;14.07;44.42
67364;HTU21D;54250;45.572;38.086;2023-02-13T09:48:36;13.03;46.02
67364;HTU21D;54250;45.572;38.086;2023-02-13T09:51:04;13.63;45.51
67364;HTU21D;54250;45.572;38.086;2023-02-13T09:53:30;14.03;45.08
67364;HTU21D;54250;45.572;38.086;2023-02-13T09:56:13;13.77;44.42
67364;HTU21D;54250;45.572;38.086;2023-02-13T09:59:31;13.19;45.61
67364;HTU21D;54250;45.572;38.086;2023-02-13T10:01:54;13.24;45.15
67364;HTU21D;54250;45.572;38.086;2023-02-13T10:07:33;13.43;45.42
67364;HTU21D;54250;45.572;38.086;2023-02-13T10:17:41;13.34;44.30
67364;HTU21D;54250;45.572;38.086;2023-02-13T10:22:49;10.35;48.93
67364;HTU21D;54250;45.572;38.086;2023-02-13T10:25:21;10.69;48.22
67364;HTU21D;54250;45.572;38.086;2023-02-13T10:27:53;10.50;48.89
67364;HTU21D;54250;45.572;38.086;2023-02-13T10:30:25;10.45;48.37
67364;HTU21D;54250;45.572;38.086;2023-02-13T10:33:29;10.81;48.41
67364;HTU21D;54250;45.572;38.086;2023-02-13T10:38:33;10.84;48.32
67364;HTU21D;54250;45.572;38.086;2023-02-13T10:43:29;10.57;48.21
67364;HTU21D;54250;45.572;38.086;2023-02-13T10:46:13;9.62;49.85
67364;HTU21D;54250;45.572;38.086;2023-02-13T10:51:52;8.59;52.06
67364;HTU21D;54250;45.572;38.086;2023-02-13T10:57:13;8.86;51.24
67364;HTU21D;54250;45.572;38.086;2023-02-13T11:02:49;7.67;51.81
67364;HTU21D;54250;45.572;38.086;2023-02-13T11:05:58;7.54;52.65
67364;HTU21D;54250;45.572;38.086;2023-02-13T11:08:23;7.65;52.45
67364;HTU21D;54250;45.572;38.086;2023-02-13T11:10:49;7.40;52.43
67364;HTU21D;54250;45.572;38.086;2023-02-13T11:13:23;6.67;53.51
67364;HTU21D;54250;45.572;38.086;2023-02-13T11:16:07;5.80;55.06
67364;HTU21D;54250;45.572;38.086;2023-02-13T11:18:47;5.04;56.19
67364;HTU21D;54250;45.572;38.086;2023-02-13T11:21:21;4.39;57.39
67364;HTU21D;54250;45.572;38.086;2023-02-13T11:23:52;4.08;58.16
67364;HTU21D;54250;45.572;38.086;2023-02-13T11:26:38;3.88;58.45
67364;HTU21D;54250;45.572;38.086;2023-02-13T11:29:24;3.78;58.84
67364;HTU21D;54250;45.572;38.086;2023-02-13T11:34:38;3.57;59.48
67364;HTU21D;54250;45.572;38.086;2023-02-13T11:39:37;3.44;60.02
67364;HTU21D;54250;45.572;38.086;2023-02-13T11:42:30;3.38;60.18
67364;HTU21D;54250;45.572;38.086;2023-02-13T11:45:05;3.36;60.37
67364;HTU21D;54250;45.572;38.086;2023-02-13T11:50:27;3.40;60.61
67364;HTU21D;54250;45.572;38.086;2023-02-13T11:53:21;3.18;60.86
67364;HTU21D;54250;45.572;38.086;2023-02-13T11:56:12;3.01;61.28
67364;HTU21D;54250;45.572;38.086;2023-02-13T11:58:39;2.73;61.73
67364;HTU21D;54250;45.572;38.086;2023-02-13T12:06:34;2.00;62.55
67364;HTU21D;54250;45.572;38.086;2023-02-13T12:09:11;2.08;62.39
67364;HTU21D;54250;45.572;38.086;2023-02-13T12:14:15;2.12;62.63
67364;HTU21D;54250;45.572;38.086;2023-02-13T12:16:47;2.24;62.51
67364;HTU21D;54250;45.572;38.086;2023-02-13T12:19:45;2.16;62.40
67364;HTU21D;54250;45.572;38.086;2023-02-13T12:33:44;2.66;63.17
67364;HTU21D;54250;45.572;38.086;2023-02-13T12:55:49;1.68;64.85
67364;HTU21D;54250;45.572;38.086;2023-02-13T13:06:41;1.50;65.17
67364;HTU21D;54250;45.572;38.086;2023-02-13T13:20:03;1.65;65.59
67364;HTU21D;54250;45.572;38.086;2023-02-13T13:22:41;1.50;65.85
67364;HTU21D;54250;45.572;38.086;2023-02-13T13:27:50;1.27;66.16
67364;HTU21D;54250;45.572;38.086;2023-02-13T13:30:27;1.02;66.47
67364;HTU21D;54250;45.572;38.086;2023-02-13T13:35:44;0.63;67.07
67364;HTU21D;54250;45.572;38.086;2023-02-13T13:44:01;0.62;67.25
67364;HTU21D;54250;45.572;38.086;2023-02-13T13:49:26;0.40;67.53
67364;HTU21D;54250;45.572;38.086;2023-02-13T13:52:18;0.29;67.61
67364;HTU21D;54250;45.572;38.086;2023-02-13T13:54:45;0.21;67.92
67364;HTU21D;54250;45.572;38.086;2023-02-13T13:57:17;0.18;67.85
67364;HTU21D;54250;45.572;38.086;2023-02-13T14:07:39;-0.10;68.76
67364;HTU21D;54250;45.572;38.086;2023-02-13T14:12:59;-0.28;69.17
67364;HTU21D;54250;45.572;38.086;2023-02-13T14:15:48;-0.38;69.09
67364;HTU21D;54250;45.572;38.086;2023-02-13T14:20:49;-0.55;69.46
67364;HTU21D;54250;45.572;38.086;2023-02-13T14:25:48;-0.72;69.72
67364;HTU21D;54250;45.572;38.086;2023-02-13T14:28:23;-0.77;69.84
67364;HTU21D;54250;45.572;38.086;2023-02-13T14:30:51;-0.81;70.26
67364;HTU21D;54250;45.572;38.086;2023-02-13T14:33:29;-0.85;70.15
67364;HTU21D;54250;45.572;38.086;2023-02-13T14:36:19;-0.93;69.91
67364;HTU21D;54250;45.572;38.086;2023-02-13T14:39:02;-1.00;70.00
67364;HTU21D;54250;45.572;38.086;2023-02-13T14:47:39;-1.36;70.44
67364;HTU21D;54250;45.572;38.086;2023-02-13T14:50:16;-1.42;70.56
67364;HTU21D;54250;45.572;38.086;2023-02-13T14:52:45;-1.49;70.79
67364;HTU21D;54250;45.572;38.086;2023-02-13T14:55:15;-1.56;70.71
67364;HTU21D;54250;45.572;38.086;2023-02-13T14:57:44;-1.67;70.73
67364;HTU21D;54250;45.572;38.086;2023-02-13T15:00:25;-1.74;70.74
67364;HTU21D;54250;45.572;38.086;2023-02-13T15:03:03;-1.87;70.61
67364;HTU21D;54250;45.572;38.086;2023-02-13T15:05:32;-1.97;70.75
67364;HTU21D;54250;45.572;38.086;2023-02-13T15:08:15;-2.05;70.76
67364;HTU21D;54250;45.572;38.086;2023-02-13T15:10:51;-2.10;70.84
67364;HTU21D;54250;45.572;38.086;2023-02-13T15:13:31;-2.13;70.70
67364;HTU21D;54250;45.572;38.086;2023-02-13T15:16:04;-2.20;70.72
67364;HTU21D;54250;45.572;38.086;2023-02-13T15:18:47;-2.29;70.67
67364;HTU21D;54250;45.572;38.086;2023-02-13T15:21:16;-2.33;70.85
67364;HTU21D;54250;45.572;38.086;2023-02-13T15:23:43;-2.39;70.89
67364;HTU21D;54250;45.572;38.086;2023-02-13T15:26:19;-2.45;70.78
67364;HTU21D;54250;45.572;38.086;2023-02-13T15:29:11;-2.56;70.88
67364;HTU21D;54250;45.572;38.086;2023-02-13T15:31:38;-2.67;71.19
67364;HTU21D;54250;45.572;38.086;2023-02-13T15:36:54;-2.84;71.29
67364;HTU21D;54250;45.572;38.086;2023-02-13T15:39:28;-2.89;71.43
67364;HTU21D;54250;45.572;38.086;2023-02-13T15:41:57;-2.92;71.44
67364;HTU21D;54250;45.572;38.086;2023-02-13T15:46:53;-3.09;71.49
67364;HTU21D;54250;45.572;38.086;2023-02-13T15:49:25;-3.15;71.45
67364;HTU21D;54250;45.572;38.086;2023-02-13T15:52:07;-3.19;71.37
67364;HTU21D;54250;45.572;38.086;2023-02-13T15:54:34;-3.16;71.54
67364;HTU21D;54250;45.572;38.086;2023-02-13T15:57:04;-3.11;71.48
67364;HTU21D;54250;45.572;38.086;2023-02-13T15:59:35;-3.17;71.37
67364;HTU21D;54250;45.572;38.086;2023-02-13T16:02:03;-3.24;71.58
67364;HTU21D;54250;45.572;38.086;2023-02-13T16:04:30;-3.27;71.55
67364;HTU21D;54250;45.572;38.086;2023-02-13T16:06:57;-3.27;71.58
67364;HTU21D;54250;45.572;38.086;2023-02-13T16:09:31;-3.25;71.47
67364;HTU21D;54250;45.572;38.086;2023-02-13T16:12:03;-3.30;71.45
67364;HTU21D;54250;45.572;38.086;2023-02-13T16:14:32;-3.34;71.89
67364;HTU21D;54250;45.572;38.086;2023-02-13T16:17:11;-3.35;71.66
67364;HTU21D;54250;45.572;38.086;2023-02-13T16:24:58;-3.25;71.64
67364;HTU21D;54250;45.572;38.086;2023-02-13T16:27:26;-3.18;71.48
67364;HTU21D;54250;45.572;38.086;2023-02-13T16:30:01;-3.12;71.34
67364;HTU21D;54250;45.572;38.086;2023-02-13T16:32:31;-3.08;71.53
67364;HTU21D;54250;45.572;38.086;2023-02-13T16:37:52;-2.95;71.64
67364;HTU21D;54250;45.572;38.086;2023-02-13T16:48:36;-2.67;72.54
67364;HTU21D;54250;45.572;38.086;2023-02-13T16:51:03;-2.66;72.74
67364;HTU21D;54250;45.572;38.086;2023-02-13T16:53:29;-2.62;73.32
67364;HTU21D;54250;45.572;38.086;2023-02-13T16:55:57;-2.64;72.97
67364;HTU21D;54250;45.572;38.086;2023-02-13T16:58:24;-2.67;73.07
67364;HTU21D;54250;45.572;38.086;2023-02-13T17:00:52;-2.66;73.44
67364;HTU21D;54250;45.572;38.086;2023-02-13T17:03:18;-2.62;73.44
67364;HTU21D;54250;45.572;38.086;2023-02-13T17:05:44;-2.57;73.79
67364;HTU21D;54250;45.572;38.086;2023-02-13T17:08:10;-2.45;73.25
67364;HTU21D;54250;45.572;38.086;2023-02-13T17:10:38;-2.30;72.99
67364;HTU21D;54250;45.572;38.086;2023-02-13T17:15:40;-2.01;72.62
67364;HTU21D;54250;45.572;38.086;2023-02-13T17:18:06;-1.91;73.22
67364;HTU21D;54250;45.572;38.086;2023-02-13T17:20:34;-1.80;73.55
67364;HTU21D;54250;45.572;38.086;2023-02-13T17:23:03;-1.70;73.08
67364;HTU21D;54250;45.572;38.086;2023-02-13T17:25:32;-1.60;73.10
67364;HTU21D;54250;45.572;38.086;2023-02-13T17:28:21;-1.52;73.35
67364;HTU21D;54250;45.572;38.086;2023-02-13T17:30:48;-1.41;73.09
67364;HTU21D;54250;45.572;38.086;2023-02-13T17:35:51;-1.26;73.64
67364;HTU21D;54250;45.572;38.086;2023-02-13T17:38:18;-1.19;73.12
67364;HTU21D;54250;45.572;38.086;2023-02-13T17:40:45;-1.14;73.61
67364;HTU21D;54250;45.572;38.086;2023-02-13T17:43:13;-1.13;74.22
67364;HTU21D;54250;45.572;38.086;2023-02-13T17:45:39;-1.15;74.22
67364;HTU21D;54250;45.572;38.086;2023-02-13T17:48:05;-1.14;74.38
67364;HTU21D;54250;45.572;38.086;2023-02-13T17:50:33;-1.15;74.44
67364;HTU21D;54250;45.572;38.086;2023-02-13T17:53:04;-1.14;75.05
67364;HTU21D;54250;45.572;38.086;2023-02-13T17:55:32;-1.14;74.21
67364;HTU21D;54250;45.572;38.086;2023-02-13T17:57:59;-1.12;74.55
67364;HTU21D;54250;45.572;38.086;2023-02-13T18:00:28;-1.12;74.47
67364;HTU21D;54250;45.572;38.086;2023-02-13T18:02:55;-1.11;74.41
67364;HTU21D;54250;45.572;38.086;2023-02-13T18:05:22;-1.08;74.52
67364;HTU21D;54250;45.572;38.086;2023-02-13T18:07:48;-1.04;74.48
67364;HTU21D;54250;45.572;38.086;2023-02-13T18:10:24;-1.02;74.50
67364;HTU21D;54250;45.572;38.086;2023-02-13T18:12:51;-0.98;74.32
67364;HTU21D;54250;45.572;38.086;2023-02-13T18:15:18;-0.96;74.51
67364;HTU21D;54250;45.572;38.086;2023-02-13T18:17:45;-0.93;74.47
67364;HTU21D;54250;45.572;38.086;2023-02-13T18:20:14;-0.89;74.44
67364;HTU21D;54250;45.572;38.086;2023-02-13T18:22:41;-0.88;74.41
67364;HTU21D;54250;45.572;38.086;2023-02-13T18:25:07;-0.87;74.41
67364;HTU21D;54250;45.572;38.086;2023-02-13T18:27:34;-0.85;74.29
67364;HTU21D;54250;45.572;38.086;2023-02-13T18:30:00;-0.82;74.21
67364;HTU21D;54250;45.572;38.086;2023-02-13T18:32:27;-0.79;74.74
67364;HTU21D;54250;45.572;38.086;2023-02-13T18:34:53;-0.74;74.59
67364;HTU21D;54250;45.572;38.086;2023-02-13T18:37:19;-0.71;74.58
67364;HTU21D;54250;45.572;38.086;2023-02-13T18:39:45;-0.66;74.44